Fleetwood, United Kingdom
Current Conditions -  °F | °C
As of 11:50 AM on Wednesday 28 Jan 2015 (Local Time) from EGNH Reporting Station
Scattered Clouds Scattered Clouds  
Wind Chill: 29°   Ceiling: Unl
Heat Index: 41°   Visibility: 6mi
Dew Point: 34°   Wind: 32mph
Humidity: 76%   Direction: 270°W
Pressure: 29.44"   Gusts: 45mph
Location:  53.92°N, 3.01°W
Report Text: EGNH 281150Z 27028G39KT 9999 SCT028 05/01 Q0997
Loading
Personal Weather Stations






























Interactive Weather Map New forecast layout! Learn more

10-Day Weather Forecast

Advertisements
Track Severe Weather on mobile